createdAt,value
2022-12-05T00:03:31.034Z,37.75
2022-12-05T00:13:35.339Z,37.33
2022-12-05T00:23:38.283Z,29.10
2022-12-05T00:33:42.605Z,39.40
2022-12-05T00:43:46.610Z,38.90
2022-12-05T00:53:51.607Z,39.57
2022-12-05T01:13:59.888Z,39.20
2022-12-05T01:24:02.793Z,41.97
2022-12-05T01:34:14.041Z,42.42
2022-12-05T01:44:54.031Z,39.45
2022-12-05T01:55:02.603Z,38.60
2022-12-05T02:05:08.726Z,37.75
2022-12-05T02:15:26.479Z,40.20
2022-12-05T02:26:01.948Z,41.42
2022-12-05T02:36:10.817Z,39.95
2022-12-05T02:46:18.243Z,41.92
2022-12-05T02:56:23.222Z,42.90
2022-12-05T03:16:36.392Z,41.90
2022-12-05T03:26:49.587Z,42.35
2022-12-05T03:36:55.518Z,40.38
2022-12-05T03:47:03.569Z,43.58
2022-12-05T03:57:13.381Z,39.88
2022-12-05T04:07:19.444Z,42.65
2022-12-05T04:17:31.483Z,40.83
2022-12-05T04:27:42.493Z,40.53
2022-12-05T04:37:51.541Z,39.92
2022-12-05T04:47:58.740Z,41.92
2022-12-05T04:58:08.803Z,38.95
2022-12-05T05:08:19.145Z,40.47
2022-12-05T05:18:23.531Z,39.92
2022-12-05T05:28:26.467Z,40.53
2022-12-05T05:38:30.782Z,42.08
2022-12-05T05:48:33.753Z,40.27
2022-12-05T05:58:38.376Z,37.85
2022-12-05T06:08:43.951Z,40.78
2022-12-05T06:18:49.286Z,39.78
2022-12-05T06:28:53.499Z,39.30
2022-12-05T06:38:59.013Z,39.63
2022-12-05T06:49:02.768Z,36.08
2022-12-05T06:59:07.770Z,37.38
2022-12-05T07:19:18.010Z,33.60
2022-12-05T07:29:21.003Z,24.57
2022-12-05T07:39:25.301Z,33.45
2022-12-05T07:49:28.412Z,25.83
2022-12-05T07:59:32.732Z,33.78
2022-12-05T08:09:35.628Z,32.37
2022-12-05T08:19:40.305Z,33.58
2022-12-05T08:29:43.296Z,34.33
2022-12-05T08:39:47.570Z,36.55
2022-12-05T08:49:50.542Z,34.53
2022-12-05T08:59:54.839Z,37.50
2022-12-05T09:09:57.805Z,32.90
2022-12-05T09:20:02.385Z,35.30
2022-12-05T09:30:06.311Z,36.13
2022-12-05T09:40:18.013Z,33.03
2022-12-05T09:50:23.380Z,29.80
2022-12-05T10:00:30.559Z,26.38
2022-12-05T10:10:43.015Z,24.95
2022-12-05T10:20:51.312Z,23.90
2022-12-05T10:31:00.165Z,23.02
2022-12-05T10:41:08.028Z,21.92
2022-12-05T10:51:15.943Z,19.80
2022-12-05T11:01:20.515Z,18.10
2022-12-05T11:11:28.493Z,20.60
2022-12-05T11:21:43.641Z,18.58
2022-12-05T11:42:20.871Z,14.85
2022-12-05T11:52:38.908Z,14.38
2022-12-05T12:03:11.622Z,14.07
2022-12-05T12:13:29.331Z,14.07
2022-12-05T12:23:46.524Z,13.93
2022-12-05T12:33:58.928Z,13.02
2022-12-05T12:44:18.376Z,14.88
2022-12-05T12:55:02.307Z,16.58
2022-12-05T13:05:05.829Z,12.38
2022-12-05T13:15:15.546Z,11.35
2022-12-05T13:25:26.141Z,13.75
2022-12-05T13:35:50.479Z,14.23
2022-12-05T13:46:04.604Z,14.67
2022-12-05T13:56:27.321Z,10.83
2022-12-05T14:06:59.445Z,15.35
2022-12-05T14:17:03.975Z,17.23
2022-12-05T14:27:14.909Z,16.33
2022-12-05T14:37:28.430Z,16.55
2022-12-05T14:47:35.296Z,17.48
2022-12-05T14:57:48.413Z,17.50
2022-12-05T15:07:55.785Z,16.88
2022-12-05T15:18:05.017Z,20.13
2022-12-05T15:28:20.678Z,21.10
2022-12-05T15:38:28.033Z,20.55
2022-12-05T15:48:32.467Z,22.08
2022-12-05T15:58:41.367Z,23.50
2022-12-05T16:08:46.882Z,23.80
2022-12-05T16:18:51.901Z,23.45
2022-12-05T16:39:05.869Z,28.75
2022-12-05T16:49:44.360Z,24.70
2022-12-05T16:59:49.829Z,24.23
2022-12-05T17:09:54.111Z,26.92
2022-12-05T17:19:57.139Z,25.17
2022-12-05T17:30:01.644Z,24.80
2022-12-05T17:40:05.210Z,23.07
2022-12-05T17:50:15.453Z,19.17
2022-12-05T18:00:20.146Z,19.52
2022-12-05T18:10:24.922Z,15.85
2022-12-05T18:20:27.821Z,13.73
2022-12-05T18:30:32.170Z,10.85
2022-12-05T18:40:35.118Z,9.90
2022-12-05T18:50:39.471Z,10.93
2022-12-05T19:00:42.544Z,9.97
2022-12-05T19:10:46.953Z,11.23
2022-12-05T19:20:52.290Z,10.45
2022-12-05T19:31:02.071Z,10.87
2022-12-05T19:41:06.290Z,10.35
2022-12-05T19:51:10.652Z,11.60
2022-12-05T20:01:16.219Z,7.57
2022-12-05T20:11:22.287Z,11.35
2022-12-05T20:21:26.774Z,11.30
2022-12-05T20:31:32.985Z,11.53
2022-12-05T20:41:36.315Z,11.32
2022-12-05T20:51:43.493Z,10.30
2022-12-05T21:01:47.593Z,11.02
2022-12-05T21:11:52.290Z,8.53
2022-12-05T21:21:56.034Z,11.93
2022-12-05T21:32:00.965Z,11.68
2022-12-05T21:42:03.964Z,12.90
2022-12-05T21:52:08.274Z,12.88
2022-12-05T22:02:11.730Z,14.53
2022-12-05T22:12:16.067Z,13.05
2022-12-05T22:22:18.959Z,13.50
2022-12-05T22:32:23.289Z,13.35
2022-12-05T22:42:27.480Z,10.90
2022-12-05T22:52:31.779Z,10.53
2022-12-05T23:02:35.089Z,13.47
2022-12-05T23:12:39.903Z,13.65
2022-12-05T23:22:43.130Z,15.00
2022-12-05T23:32:47.824Z,15.45
2022-12-05T23:42:51.069Z,15.23
2022-12-05T23:52:55.700Z,16.10
